sensor_id;sensor_type;location;lat;lon;timestamp;pressure;altitude;pressure_sealevel;temperature;humidity
76122;BME280;70471;53.200;6.080;2023-09-18T00:02:37;100871.41;;;21.85;54.45
76122;BME280;70471;53.200;6.080;2023-09-18T00:07:29;100848.41;;;21.85;54.32
76122;BME280;70471;53.200;6.080;2023-09-18T00:12:22;100825.69;;;21.83;54.35
76122;BME280;70471;53.200;6.080;2023-09-18T00:17:13;100799.94;;;21.82;54.52
76122;BME280;70471;53.200;6.080;2023-09-18T00:22:04;100786.06;;;21.82;54.43
76122;BME280;70471;53.200;6.080;2023-09-18T00:26:56;100764.69;;;21.83;54.51
76122;BME280;70471;53.200;6.080;2023-09-18T00:31:49;100746.31;;;21.73;54.64
76122;BME280;70471;53.200;6.080;2023-09-18T00:36:40;100727.09;;;21.76;54.55
76122;BME280;70471;53.200;6.080;2023-09-18T00:41:32;100715.19;;;21.76;54.92
76122;BME280;70471;53.200;6.080;2023-09-18T00:46:23;100701.94;;;21.73;54.47
76122;BME280;70471;53.200;6.080;2023-09-18T00:51:17;100695.91;;;21.71;54.90
76122;BME280;70471;53.200;6.080;2023-09-18T00:56:09;100683.16;;;21.70;54.95
76122;BME280;70471;53.200;6.080;2023-09-18T01:01:02;100668.81;;;21.68;54.51
76122;BME280;70471;53.200;6.080;2023-09-18T01:05:55;100671.91;;;21.66;54.52
76122;BME280;70471;53.200;6.080;2023-09-18T01:10:54;100658.34;;;21.64;54.65
76122;BME280;70471;53.200;6.080;2023-09-18T01:15:51;100655.09;;;21.62;54.81
76122;BME280;70471;53.200;6.080;2023-09-18T01:20:43;100648.69;;;21.62;54.62
76122;BME280;70471;53.200;6.080;2023-09-18T01:25:36;100643.47;;;21.60;54.77
76122;BME280;70471;53.200;6.080;2023-09-18T01:30:27;100635.47;;;21.59;54.57
76122;BME280;70471;53.200;6.080;2023-09-18T01:35:19;100629.59;;;21.60;55.05
76122;BME280;70471;53.200;6.080;2023-09-18T01:40:13;100626.34;;;21.58;54.75
76122;BME280;70471;53.200;6.080;2023-09-18T01:45:07;100616.38;;;21.57;55.00
76122;BME280;70471;53.200;6.080;2023-09-18T01:50:02;100588.16;;;21.55;55.07
76122;BME280;70471;53.200;6.080;2023-09-18T01:54:55;100594.53;;;21.56;54.88
76122;BME280;70471;53.200;6.080;2023-09-18T01:59:46;100580.97;;;21.54;55.32
76122;BME280;70471;53.200;6.080;2023-09-18T02:04:39;100569.88;;;21.54;55.19
76122;BME280;70471;53.200;6.080;2023-09-18T02:09:30;100591.25;;;21.54;54.95
76122;BME280;70471;53.200;6.080;2023-09-18T02:14:22;100588.00;;;21.52;55.28
76122;BME280;70471;53.200;6.080;2023-09-18T02:19:13;100568.91;;;21.50;55.28
76122;BME280;70471;53.200;6.080;2023-09-18T02:24:07;100565.25;;;21.41;55.17
76122;BME280;70471;53.200;6.080;2023-09-18T02:29:02;100550.59;;;21.40;55.28
76122;BME280;70471;53.200;6.080;2023-09-18T02:33:54;100534.31;;;21.48;55.34
76122;BME280;70471;53.200;6.080;2023-09-18T02:38:45;100535.28;;;21.43;55.34
76122;BME280;70471;53.200;6.080;2023-09-18T02:43:38;100530.56;;;21.43;55.38
76122;BME280;70471;53.200;6.080;2023-09-18T02:48:29;100519.78;;;21.42;55.46
76122;BME280;70471;53.200;6.080;2023-09-18T02:53:21;100499.56;;;21.41;55.72
76122;BME280;70471;53.200;6.080;2023-09-18T02:58:13;100497.09;;;21.40;55.68
76122;BME280;70471;53.200;6.080;2023-09-18T03:03:10;100469.03;;;21.33;55.57
76122;BME280;70471;53.200;6.080;2023-09-18T03:08:03;100468.41;;;21.36;55.81
76122;BME280;70471;53.200;6.080;2023-09-18T03:12:54;100457.97;;;21.33;55.82
76122;BME280;70471;53.200;6.080;2023-09-18T03:17:46;100450.13;;;21.35;55.78
76122;BME280;70471;53.200;6.080;2023-09-18T03:22:38;100427.97;;;21.35;55.95
76122;BME280;70471;53.200;6.080;2023-09-18T03:27:30;100419.16;;;21.33;55.93
76122;BME280;70471;53.200;6.080;2023-09-18T03:32:22;100404.50;;;21.32;56.17
76122;BME280;70471;53.200;6.080;2023-09-18T03:37:13;100378.72;;;21.32;56.33
76122;BME280;70471;53.200;6.080;2023-09-18T03:42:06;100353.31;;;21.30;56.23
76122;BME280;70471;53.200;6.080;2023-09-18T03:46:57;100341.41;;;21.29;56.74
76122;BME280;70471;53.200;6.080;2023-09-18T03:51:48;100333.41;;;21.27;56.47
76122;BME280;70471;53.200;6.080;2023-09-18T03:56:40;100337.31;;;21.26;56.63
76122;BME280;70471;53.200;6.080;2023-09-18T04:01:32;100317.44;;;21.24;56.88
76122;BME280;70471;53.200;6.080;2023-09-18T04:06:24;100302.44;;;21.25;57.04
76122;BME280;70471;53.200;6.080;2023-09-18T04:11:15;100300.31;;;21.22;56.65
76122;BME280;70471;53.200;6.080;2023-09-18T04:16:07;100277.00;;;21.23;56.68
76122;BME280;70471;53.200;6.080;2023-09-18T04:21:00;100273.75;;;21.21;57.20
76122;BME280;70471;53.200;6.080;2023-09-18T04:25:52;100257.13;;;21.21;56.64
76122;BME280;70471;53.200;6.080;2023-09-18T04:30:44;100244.09;;;21.22;57.33
76122;BME280;70471;53.200;6.080;2023-09-18T04:35:35;100230.06;;;21.18;57.33
76122;BME280;70471;53.200;6.080;2023-09-18T04:40:29;100217.03;;;21.19;57.23
76122;BME280;70471;53.200;6.080;2023-09-18T04:45:22;100219.00;;;21.18;57.37
76122;BME280;70471;53.200;6.080;2023-09-18T04:50:13;100207.41;;;21.16;57.16
76122;BME280;70471;53.200;6.080;2023-09-18T04:55:05;100199.75;;;21.13;57.41
76122;BME280;70471;53.200;6.080;2023-09-18T04:59:58;100211.66;;;21.14;57.08
76122;BME280;70471;53.200;6.080;2023-09-18T05:04:50;100209.69;;;21.14;57.04
76122;BME280;70471;53.200;6.080;2023-09-18T05:09:42;100206.13;;;21.14;57.28
76122;BME280;70471;53.200;6.080;2023-09-18T05:14:33;100195.34;;;21.12;57.33
76122;BME280;70471;53.200;6.080;2023-09-18T05:19:26;100195.03;;;21.14;57.18
76122;BME280;70471;53.200;6.080;2023-09-18T05:24:19;100188.16;;;21.11;57.12
76122;BME280;70471;53.200;6.080;2023-09-18T05:29:16;100177.59;;;21.13;57.11
76122;BME280;70471;53.200;6.080;2023-09-18T05:34:08;100156.56;;;21.12;57.16
76122;BME280;70471;53.200;6.080;2023-09-18T05:39:01;100166.00;;;21.11;57.64
76122;BME280;70471;53.200;6.080;2023-09-18T05:43:53;100173.50;;;21.11;57.29
76122;BME280;70471;53.200;6.080;2023-09-18T05:48:44;100193.72;;;21.11;57.64
76122;BME280;70471;53.200;6.080;2023-09-18T05:53:36;100204.31;;;21.09;57.54
76122;BME280;70471;53.200;6.080;2023-09-18T05:58:29;100212.94;;;21.07;57.61
76122;BME280;70471;53.200;6.080;2023-09-18T06:03:22;100226.59;;;21.04;58.01
76122;BME280;70471;53.200;6.080;2023-09-18T06:08:13;100202.47;;;21.04;57.92
76122;BME280;70471;53.200;6.080;2023-09-18T06:13:05;100187.00;;;21.03;58.14
76122;BME280;70471;53.200;6.080;2023-09-18T06:17:58;100190.09;;;21.02;58.33
76122;BME280;70471;53.200;6.080;2023-09-18T06:22:49;100213.41;;;21.01;58.37
76122;BME280;70471;53.200;6.080;2023-09-18T06:27:41;100194.66;;;20.98;58.46
76122;BME280;70471;53.200;6.080;2023-09-18T06:32:33;100199.88;;;20.99;58.62
76122;BME280;70471;53.200;6.080;2023-09-18T06:37:27;100223.63;;;21.00;58.30
76122;BME280;70471;53.200;6.080;2023-09-18T06:42:18;100213.06;;;21.02;58.42
76122;BME280;70471;53.200;6.080;2023-09-18T06:47:09;100222.38;;;21.06;58.05
76122;BME280;70471;53.200;6.080;2023-09-18T06:52:01;100220.75;;;21.05;58.03
76122;BME280;70471;53.200;6.080;2023-09-18T06:56:54;100218.28;;;21.04;57.47
76122;BME280;70471;53.200;6.080;2023-09-18T07:01:45;100193.69;;;21.02;57.38
76122;BME280;70471;53.200;6.080;2023-09-18T07:06:37;100172.50;;;20.98;57.30
76122;BME280;70471;53.200;6.080;2023-09-18T07:11:29;100167.28;;;21.05;57.22
76122;BME280;70471;53.200;6.080;2023-09-18T07:16:21;100165.66;;;21.04;56.90
76122;BME280;70471;53.200;6.080;2023-09-18T07:21:13;100151.81;;;21.04;56.99
76122;BME280;70471;53.200;6.080;2023-09-18T07:26:04;100166.16;;;21.06;57.14
76122;BME280;70471;53.200;6.080;2023-09-18T07:30:56;100176.13;;;21.07;57.12
76122;BME280;70471;53.200;6.080;2023-09-18T07:35:49;100184.44;;;21.07;57.00
76122;BME280;70471;53.200;6.080;2023-09-18T07:40:41;100174.16;;;21.07;56.52
76122;BME280;70471;53.200;6.080;2023-09-18T07:45:33;100184.44;;;21.07;56.77
76122;BME280;70471;53.200;6.080;2023-09-18T07:50:25;100177.22;;;21.06;56.88
76122;BME280;70471;53.200;6.080;2023-09-18T07:55:18;100186.06;;;21.08;56.44
76122;BME280;70471;53.200;6.080;2023-09-18T08:00:10;100197.13;;;21.08;56.72
76122;BME280;70471;53.200;6.080;2023-09-18T08:05:03;100186.88;;;21.08;56.34
76122;BME280;70471;53.200;6.080;2023-09-18T08:09:55;100200.41;;;21.10;56.90
76122;BME280;70471;53.200;6.080;2023-09-18T08:14:48;100201.22;;;21.11;56.41
76122;BME280;70471;53.200;6.080;2023-09-18T08:19:40;100191.78;;;21.12;56.82
76122;BME280;70471;53.200;6.080;2023-09-18T08:24:31;100186.25;;;21.12;56.85
76122;BME280;70471;53.200;6.080;2023-09-18T08:29:23;100191.09;;;21.15;56.26
76122;BME280;70471;53.200;6.080;2023-09-18T08:34:16;100203.00;;;21.15;56.56
76122;BME280;70471;53.200;6.080;2023-09-18T08:39:08;100207.91;;;21.18;57.15
76122;BME280;70471;53.200;6.080;2023-09-18T08:44:01;100201.72;;;21.21;57.16
76122;BME280;70471;53.200;6.080;2023-09-18T08:48:54;100180.03;;;21.23;57.41
76122;BME280;70471;53.200;6.080;2023-09-18T08:53:48;100188.50;;;21.27;57.76
76122;BME280;70471;53.200;6.080;2023-09-18T08:58:41;100184.28;;;21.30;57.51
76122;BME280;70471;53.200;6.080;2023-09-18T09:03:34;100174.81;;;21.39;57.71
76122;BME280;70471;53.200;6.080;2023-09-18T09:08:26;100196.34;;;21.42;57.80
76122;BME280;70471;53.200;6.080;2023-09-18T09:13:19;100208.75;;;21.45;58.01
76122;BME280;70471;53.200;6.080;2023-09-18T09:18:16;100198.28;;;21.51;57.68
76122;BME280;70471;53.200;6.080;2023-09-18T09:23:09;100198.75;;;21.53;57.76
76122;BME280;70471;53.200;6.080;2023-09-18T09:28:02;100204.31;;;21.61;57.45
76122;BME280;70471;53.200;6.080;2023-09-18T09:32:57;100204.78;;;21.63;57.28
76122;BME280;70471;53.200;6.080;2023-09-18T09:37:50;100220.78;;;21.67;57.17
76122;BME280;70471;53.200;6.080;2023-09-18T09:42:42;100227.16;;;21.67;57.01
76122;BME280;70471;53.200;6.080;2023-09-18T09:47:34;100240.19;;;21.67;56.81
76122;BME280;70471;53.200;6.080;2023-09-18T09:52:27;100230.72;;;21.68;57.15
76122;BME280;70471;53.200;6.080;2023-09-18T09:57:19;100239.53;;;21.70;56.85
76122;BME280;70471;53.200;6.080;2023-09-18T10:02:10;100252.91;;;21.68;56.63
76122;BME280;70471;53.200;6.080;2023-09-18T10:07:06;100271.19;;;21.69;56.72
76122;BME280;70471;53.200;6.080;2023-09-18T10:12:00;100269.69;;;21.71;56.85
76122;BME280;70471;53.200;6.080;2023-09-18T10:16:56;100266.59;;;21.73;56.83
76122;BME280;70471;53.200;6.080;2023-09-18T10:21:53;100253.22;;;21.75;58.08
76122;BME280;70471;53.200;6.080;2023-09-18T10:26:55;100271.16;;;21.77;58.95
76122;BME280;70471;53.200;6.080;2023-09-18T10:31:48;100261.06;;;21.73;60.10
76122;BME280;70471;53.200;6.080;2023-09-18T10:36:41;100261.41;;;21.80;60.51
76122;BME280;70471;53.200;6.080;2023-09-18T10:41:33;100282.94;;;21.83;59.96
76122;BME280;70471;53.200;6.080;2023-09-18T10:46:25;100260.91;;;21.87;59.70
76122;BME280;70471;53.200;6.080;2023-09-18T10:51:21;100256.31;;;21.91;59.96
76122;BME280;70471;53.200;6.080;2023-09-18T10:56:14;100242.34;;;21.78;60.93
76122;BME280;70471;53.200;6.080;2023-09-18T11:01:06;100251.59;;;21.74;60.33
76122;BME280;70471;53.200;6.080;2023-09-18T11:06:03;100246.88;;;21.74;59.63
76122;BME280;70471;53.200;6.080;2023-09-18T11:10:58;100259.09;;;21.64;60.31
76122;BME280;70471;53.200;6.080;2023-09-18T11:15:59;100262.19;;;21.63;60.64
76122;BME280;70471;53.200;6.080;2023-09-18T11:21:09;100265.78;;;21.55;60.24
76122;BME280;70471;53.200;6.080;2023-09-18T11:26:08;100270.84;;;21.61;60.73
76122;BME280;70471;53.200;6.080;2023-09-18T11:31:00;100271.31;;;21.63;59.68
76122;BME280;70471;53.200;6.080;2023-09-18T11:35:52;100271.84;;;21.66;59.56
76122;BME280;70471;53.200;6.080;2023-09-18T11:40:44;100252.91;;;21.68;59.64
76122;BME280;70471;53.200;6.080;2023-09-18T11:45:37;100262.03;;;21.68;58.81
76122;BME280;70471;53.200;6.080;2023-09-18T11:50:29;100269.06;;;21.66;58.89
76122;BME280;70471;53.200;6.080;2023-09-18T11:55:22;100265.31;;;21.61;59.14
76122;BME280;70471;53.200;6.080;2023-09-18T12:00:20;100260.41;;;21.58;58.69
76122;BME280;70471;53.200;6.080;2023-09-18T12:05:17;100257.13;;;21.48;59.60
76122;BME280;70471;53.200;6.080;2023-09-18T12:10:10;100259.09;;;21.47;59.96
76122;BME280;70471;53.200;6.080;2023-09-18T12:15:02;100254.56;;;21.51;59.93
76122;BME280;70471;53.200;6.080;2023-09-18T12:19:55;100257.31;;;21.51;60.07
76122;BME280;70471;53.200;6.080;2023-09-18T12:24:48;100233.34;;;21.38;58.94
76122;BME280;70471;53.200;6.080;2023-09-18T12:29:40;100245.41;;;21.42;57.75
76122;BME280;70471;53.200;6.080;2023-09-18T12:34:31;100260.41;;;21.58;56.87
76122;BME280;70471;53.200;6.080;2023-09-18T12:39:31;100260.09;;;21.69;57.05
76122;BME280;70471;53.200;6.080;2023-09-18T12:44:24;100268.72;;;21.76;57.27
76122;BME280;70471;53.200;6.080;2023-09-18T12:49:17;100268.72;;;21.76;57.00
76122;BME280;70471;53.200;6.080;2023-09-18T12:54:09;100277.41;;;21.83;57.62
76122;BME280;70471;53.200;6.080;2023-09-18T12:59:02;100263.19;;;21.93;57.59
76122;BME280;70471;53.200;6.080;2023-09-18T13:03:55;100265.97;;;22.02;57.79
76122;BME280;70471;53.200;6.080;2023-09-18T13:08:47;100250.59;;;22.05;57.42
76122;BME280;70471;53.200;6.080;2023-09-18T13:13:38;100256.47;;;22.12;57.54
76122;BME280;70471;53.200;6.080;2023-09-18T13:18:30;100259.06;;;22.17;57.12
76122;BME280;70471;53.200;6.080;2023-09-18T13:23:29;100240.13;;;22.19;57.15
76122;BME280;70471;53.200;6.080;2023-09-18T13:28:20;100241.75;;;22.20;57.02
76122;BME280;70471;53.200;6.080;2023-09-18T13:33:16;100220.06;;;22.13;57.04
76122;BME280;70471;53.200;6.080;2023-09-18T13:38:09;100239.63;;;22.26;56.75
76122;BME280;70471;53.200;6.080;2023-09-18T13:43:03;100229.34;;;22.26;56.76
76122;BME280;70471;53.200;6.080;2023-09-18T13:47:55;100239.78;;;22.29;56.72
76122;BME280;70471;53.200;6.080;2023-09-18T13:52:46;100245.81;;;22.31;56.70
76122;BME280;70471;53.200;6.080;2023-09-18T13:57:38;100241.56;;;22.34;56.47
76122;BME280;70471;53.200;6.080;2023-09-18T14:02:33;100228.16;;;22.36;56.15
76122;BME280;70471;53.200;6.080;2023-09-18T14:07:24;100215.75;;;22.33;56.17
76122;BME280;70471;53.200;6.080;2023-09-18T14:12:16;100210.03;;;22.39;56.25
76122;BME280;70471;53.200;6.080;2023-09-18T14:17:07;100195.81;;;22.40;56.45
76122;BME280;70471;53.200;6.080;2023-09-18T14:22:00;100189.94;;;22.42;56.05
76122;BME280;70471;53.200;6.080;2023-09-18T14:26:54;100187.16;;;22.42;56.14
76122;BME280;70471;53.200;6.080;2023-09-18T14:31:45;100176.88;;;22.42;56.27
76122;BME280;70471;53.200;6.080;2023-09-18T14:36:37;100177.66;;;22.43;56.18
76122;BME280;70471;53.200;6.080;2023-09-18T14:41:30;100181.59;;;22.42;55.97
76122;BME280;70471;53.200;6.080;2023-09-18T14:46:22;100174.88;;;22.43;56.25
76122;BME280;70471;53.200;6.080;2023-09-18T14:51:13;100162.66;;;22.44;56.04
76122;BME280;70471;53.200;6.080;2023-09-18T14:56:05;100172.25;;;22.46;55.74
76122;BME280;70471;53.200;6.080;2023-09-18T15:00:57;100161.34;;;22.50;56.02
76122;BME280;70471;53.200;6.080;2023-09-18T15:05:50;100157.41;;;22.51;55.56
76122;BME280;70471;53.200;6.080;2023-09-18T15:10:42;100136.97;;;22.56;55.71
76122;BME280;70471;53.200;6.080;2023-09-18T15:15:34;100141.03;;;22.58;55.55
76122;BME280;70471;53.200;6.080;2023-09-18T15:20:27;100136.47;;;22.62;55.44
76122;BME280;70471;53.200;6.080;2023-09-18T15:25:18;100130.69;;;22.67;55.24
76122;BME280;70471;53.200;6.080;2023-09-18T15:30:11;100125.63;;;22.69;55.32
76122;BME280;70471;53.200;6.080;2023-09-18T15:35:03;100120.53;;;22.71;55.30
76122;BME280;70471;53.200;6.080;2023-09-18T15:39:56;100126.41;;;22.70;55.20
76122;BME280;70471;53.200;6.080;2023-09-18T15:44:47;100123.31;;;22.71;55.15
76122;BME280;70471;53.200;6.080;2023-09-18T15:49:39;100126.06;;;22.71;55.21
76122;BME280;70471;53.200;6.080;2023-09-18T15:54:30;100106.63;;;22.71;55.20
76122;BME280;70471;53.200;6.080;2023-09-18T15:59:23;100108.94;;;22.69;55.23
76122;BME280;70471;53.200;6.080;2023-09-18T16:04:15;100104.19;;;22.70;55.23
76122;BME280;70471;53.200;6.080;2023-09-18T16:09:06;100084.28;;;22.68;55.24
76122;BME280;70471;53.200;6.080;2023-09-18T16:14:00;100086.28;;;22.67;55.05
76122;BME280;70471;53.200;6.080;2023-09-18T16:18:53;100081.84;;;22.66;54.92
76122;BME280;70471;53.200;6.080;2023-09-18T16:23:47;100076.31;;;22.66;54.88
76122;BME280;70471;53.200;6.080;2023-09-18T16:28:38;100083.00;;;22.65;54.98
76122;BME280;70471;53.200;6.080;2023-09-18T16:33:30;100080.22;;;22.65;54.97
76122;BME280;70471;53.200;6.080;2023-09-18T16:38:23;100068.66;;;22.63;55.02
76122;BME280;70471;53.200;6.080;2023-09-18T16:43:14;100067.84;;;22.63;55.22
76122;BME280;70471;53.200;6.080;2023-09-18T16:48:07;100079.75;;;22.63;55.27
76122;BME280;70471;53.200;6.080;2023-09-18T16:52:58;100065.41;;;22.61;55.28
76122;BME280;70471;53.200;6.080;2023-09-18T16:57:51;100070.16;;;22.61;55.01
76122;BME280;70471;53.200;6.080;2023-09-18T17:02:42;100073.75;;;22.61;55.35
76122;BME280;70471;53.200;6.080;2023-09-18T17:07:34;100072.09;;;22.60;55.27
76122;BME280;70471;53.200;6.080;2023-09-18T17:12:25;100067.72;;;22.59;55.17
76122;BME280;70471;53.200;6.080;2023-09-18T17:17:18;100064.94;;;22.59;55.56
76122;BME280;70471;53.200;6.080;2023-09-18T17:22:10;100065.28;;;22.58;55.29
76122;BME280;70471;53.200;6.080;2023-09-18T17:27:01;100060.88;;;22.57;55.31
76122;BME280;70471;53.200;6.080;2023-09-18T17:31:53;100053.34;;;22.57;55.40
76122;BME280;70471;53.200;6.080;2023-09-18T17:36:45;100052.41;;;22.53;55.39
76122;BME280;70471;53.200;6.080;2023-09-18T17:41:37;100053.34;;;22.57;55.27
76122;BME280;70471;53.200;6.080;2023-09-18T17:46:28;100060.06;;;22.56;55.23
76122;BME280;70471;53.200;6.080;2023-09-18T17:51:20;100063.97;;;22.55;55.14
76122;BME280;70471;53.200;6.080;2023-09-18T17:56:12;100056.13;;;22.57;55.87
76122;BME280;70471;53.200;6.080;2023-09-18T18:01:04;100062.63;;;22.61;55.88
76122;BME280;70471;53.200;6.080;2023-09-18T18:05:57;100044.50;;;22.64;55.72
76122;BME280;70471;53.200;6.080;2023-09-18T18:10:49;100046.91;;;22.65;55.48
76122;BME280;70471;53.200;6.080;2023-09-18T18:15:42;100041.00;;;22.67;55.46
76122;BME280;70471;53.200;6.080;2023-09-18T18:20:34;100040.66;;;22.68;55.49
76122;BME280;70471;53.200;6.080;2023-09-18T18:25:26;100037.22;;;22.71;55.32
76122;BME280;70471;53.200;6.080;2023-09-18T18:30:17;100025.19;;;22.67;55.05
76122;BME280;70471;53.200;6.080;2023-09-18T18:35:11;100026.59;;;22.74;55.22
76122;BME280;70471;53.200;6.080;2023-09-18T18:40:07;100019.06;;;22.74;55.01
76122;BME280;70471;53.200;6.080;2023-09-18T18:45:01;100015.16;;;22.75;55.09
76122;BME280;70471;53.200;6.080;2023-09-18T18:49:52;100008.09;;;22.78;54.76
76122;BME280;70471;53.200;6.080;2023-09-18T18:54:45;100014.13;;;22.80;54.95
76122;BME280;70471;53.200;6.080;2023-09-18T18:59:38;100006.28;;;22.82;54.73
76122;BME280;70471;53.200;6.080;2023-09-18T19:04:30;100009.50;;;22.84;54.74
76122;BME280;70471;53.200;6.080;2023-09-18T19:09:21;100017.50;;;22.85;54.63
76122;BME280;70471;53.200;6.080;2023-09-18T19:14:14;100027.25;;;22.92;54.54
76122;BME280;70471;53.200;6.080;2023-09-18T19:19:06;100022.50;;;22.92;54.45
76122;BME280;70471;53.200;6.080;2023-09-18T19:23:57;100032.00;;;22.91;54.31
76122;BME280;70471;53.200;6.080;2023-09-18T19:28:48;100054.22;;;22.91;54.32
76122;BME280;70471;53.200;6.080;2023-09-18T19:33:45;100061.38;;;22.92;54.66
76122;BME280;70471;53.200;6.080;2023-09-18T19:38:36;100074.94;;;22.94;54.74
76122;BME280;70471;53.200;6.080;2023-09-18T19:43:28;100078.06;;;22.92;54.77
76122;BME280;70471;53.200;6.080;2023-09-18T19:48:21;100075.78;;;22.94;54.72
76122;BME280;70471;53.200;6.080;2023-09-18T19:53:14;100076.69;;;22.98;54.78
76122;BME280;70471;53.200;6.080;2023-09-18T19:58:05;100082.75;;;23.00;54.72
76122;BME280;70471;53.200;6.080;2023-09-18T20:02:56;100088.44;;;23.04;54.48
76122;BME280;70471;53.200;6.080;2023-09-18T20:07:48;100106.56;;;23.01;54.21
76122;BME280;70471;53.200;6.080;2023-09-18T20:12:41;100119.53;;;22.97;54.23
76122;BME280;70471;53.200;6.080;2023-09-18T20:17:34;100125.78;;;22.94;54.27
76122;BME280;70471;53.200;6.080;2023-09-18T20:22:26;100132.81;;;22.92;54.49
76122;BME280;70471;53.200;6.080;2023-09-18T20:27:18;100142.16;;;22.87;54.50
76122;BME280;70471;53.200;6.080;2023-09-18T20:32:11;100163.25;;;22.88;54.44
76122;BME280;70471;53.200;6.080;2023-09-18T20:37:04;100175.81;;;22.85;54.48
76122;BME280;70471;53.200;6.080;2023-09-18T20:41:56;100183.34;;;22.85;54.53
76122;BME280;70471;53.200;6.080;2023-09-18T20:46:47;100189.56;;;22.82;54.46
76122;BME280;70471;53.200;6.080;2023-09-18T20:51:40;100196.28;;;22.81;54.51
76122;BME280;70471;53.200;6.080;2023-09-18T20:56:33;100202.50;;;22.78;54.55
76122;BME280;70471;53.200;6.080;2023-09-18T21:01:24;100204.81;;;22.76;54.57
76122;BME280;70471;53.200;6.080;2023-09-18T21:06:17;100213.13;;;22.76;54.72
76122;BME280;70471;53.200;6.080;2023-09-18T21:11:11;100228.16;;;22.75;54.72
76122;BME280;70471;53.200;6.080;2023-09-18T21:16:02;100231.28;;;22.73;54.58
76122;BME280;70471;53.200;6.080;2023-09-18T21:20:54;100233.09;;;22.69;54.63
76122;BME280;70471;53.200;6.080;2023-09-18T21:25:48;100250.56;;;22.69;54.40
76122;BME280;70471;53.200;6.080;2023-09-18T21:30:41;100250.09;;;22.67;54.71
76122;BME280;70471;53.200;6.080;2023-09-18T21:35:33;100277.38;;;22.65;54.45
76122;BME280;70471;53.200;6.080;2023-09-18T21:40:25;100282.44;;;22.63;54.32
76122;BME280;70471;53.200;6.080;2023-09-18T21:45:16;100291.13;;;22.62;54.62
76122;BME280;70471;53.200;6.080;2023-09-18T21:50:11;100305.31;;;22.60;54.72
76122;BME280;70471;53.200;6.080;2023-09-18T21:55:04;100314.00;;;22.59;54.53
76122;BME280;70471;53.200;6.080;2023-09-18T21:59:55;100325.44;;;22.57;54.16
76122;BME280;70471;53.200;6.080;2023-09-18T22:04:47;100336.84;;;22.56;54.32
76122;BME280;70471;53.200;6.080;2023-09-18T22:09:40;100331.63;;;22.54;54.44
76122;BME280;70471;53.200;6.080;2023-09-18T22:14:36;100335.59;;;22.53;54.42
76122;BME280;70471;53.200;6.080;2023-09-18T22:19:28;100320.06;;;22.52;54.28
76122;BME280;70471;53.200;6.080;2023-09-18T22:24:19;100329.84;;;22.49;54.16
76122;BME280;70471;53.200;6.080;2023-09-18T22:29:12;100335.72;;;22.48;54.18
76122;BME280;70471;53.200;6.080;2023-09-18T22:34:05;100338.00;;;22.46;54.22
76122;BME280;70471;53.200;6.080;2023-09-18T22:39:03;100355.81;;;22.45;54.47
76122;BME280;70471;53.200;6.080;2023-09-18T22:54:59;100386.84;;;22.38;54.18
76122;BME280;70471;53.200;6.080;2023-09-18T22:59:52;100380.47;;;22.38;54.20
76122;BME280;70471;53.200;6.080;2023-09-18T23:04:46;100392.72;;;22.36;54.02
76122;BME280;70471;53.200;6.080;2023-09-18T23:09:37;100389.47;;;22.34;54.22
76122;BME280;70471;53.200;6.080;2023-09-18T23:14:30;100392.25;;;22.34;53.87
76122;BME280;70471;53.200;6.080;2023-09-18T23:19:21;100388.97;;;22.32;54.23
76122;BME280;70471;53.200;6.080;2023-09-18T23:24:12;100401.22;;;22.31;53.88
76122;BME280;70471;53.200;6.080;2023-09-18T23:29:04;100402.34;;;22.30;54.01
76122;BME280;70471;53.200;6.080;2023-09-18T23:33:59;100405.44;;;22.29;53.88
76122;BME280;70471;53.200;6.080;2023-09-18T23:38:52;100413.28;;;22.27;53.84
76122;BME280;70471;53.200;6.080;2023-09-18T23:43:44;100412.50;;;22.26;53.80
76122;BME280;70471;53.200;6.080;2023-09-18T23:48:36;100418.38;;;22.25;53.75
76122;BME280;70471;53.200;6.080;2023-09-18T23:53:33;100419.50;;;22.24;53.66
76122;BME280;70471;53.200;6.080;2023-09-18T23:58:25;100425.38;;;22.22;53.78
